createdAt,value
2019-01-30T00:01:52.633Z,6.73
2019-01-30T00:06:52.173Z,6.23
2019-01-30T00:11:51.717Z,7.03
2019-01-30T00:16:51.363Z,7.40
2019-01-30T00:21:50.945Z,6.60
2019-01-30T00:26:50.483Z,7.63
2019-01-30T00:31:50.022Z,6.63
2019-01-30T00:36:49.649Z,7.50
2019-01-30T00:41:49.207Z,7.07
2019-01-30T00:46:48.763Z,7.50
2019-01-30T00:51:48.311Z,7.63
2019-01-30T00:56:47.987Z,8.03
2019-01-30T01:01:47.537Z,7.00
2019-01-30T01:06:47.073Z,7.80
2019-01-30T01:11:46.698Z,7.77
2019-01-30T01:16:46.341Z,7.83
2019-01-30T01:21:45.964Z,7.80
2019-01-30T01:26:45.516Z,9.13
2019-01-30T01:31:45.078Z,7.83
2019-01-30T01:36:44.622Z,7.83
2019-01-30T01:41:44.170Z,8.23
2019-01-30T01:46:43.719Z,8.37
2019-01-30T01:51:43.266Z,7.10
2019-01-30T01:56:42.890Z,8.47
2019-01-30T02:01:42.437Z,8.77
2019-01-30T02:06:41.979Z,8.30
2019-01-30T02:11:41.525Z,7.70
2019-01-30T02:16:41.064Z,7.57
2019-01-30T02:21:40.612Z,7.03
2019-01-30T02:26:40.230Z,7.83
2019-01-30T02:31:39.767Z,7.73
2019-01-30T02:36:58.371Z,7.93
2019-01-30T02:41:57.983Z,7.97
2019-01-30T02:46:57.536Z,7.60
2019-01-30T02:51:57.074Z,7.30
2019-01-30T02:56:56.643Z,8.60
2019-01-30T03:02:14.262Z,6.90
2019-01-30T03:07:13.823Z,8.40
2019-01-30T03:12:13.356Z,7.47
2019-01-30T03:17:12.900Z,7.50
2019-01-30T03:22:12.459Z,7.27
2019-01-30T03:27:12.009Z,8.13
2019-01-30T03:32:11.639Z,7.33
2019-01-30T03:37:11.173Z,7.60
2019-01-30T03:42:10.728Z,7.53
2019-01-30T03:47:10.274Z,6.73
2019-01-30T03:52:09.810Z,5.63
2019-01-30T03:57:09.350Z,8.03
2019-01-30T04:02:08.963Z,6.70
2019-01-30T04:07:08.536Z,7.57
2019-01-30T04:12:08.115Z,6.60
2019-01-30T04:17:07.661Z,7.13
2019-01-30T04:22:07.467Z,7.03
2019-01-30T04:27:07.013Z,5.97
2019-01-30T04:32:06.570Z,7.50
2019-01-30T04:37:06.200Z,7.03
2019-01-30T04:42:05.819Z,7.10
2019-01-30T04:47:05.372Z,6.87
2019-01-30T04:52:04.992Z,7.90
2019-01-30T04:57:04.606Z,6.90
2019-01-30T05:02:04.230Z,6.77
2019-01-30T05:07:03.787Z,6.50
2019-01-30T05:12:03.328Z,6.30
2019-01-30T05:17:02.873Z,6.60
2019-01-30T05:22:02.411Z,7.10
2019-01-30T05:27:01.954Z,6.63
2019-01-30T05:32:01.711Z,6.17
2019-01-30T05:37:01.391Z,7.10
2019-01-30T05:42:00.982Z,5.70
2019-01-30T05:47:00.540Z,7.10
2019-01-30T05:52:00.098Z,8.17
2019-01-30T05:56:59.722Z,5.93
2019-01-30T06:01:59.356Z,7.40
2019-01-30T06:06:58.903Z,6.90
2019-01-30T06:11:58.456Z,6.27
2019-01-30T06:16:58.006Z,6.63
2019-01-30T06:21:57.572Z,8.80
2019-01-30T06:26:57.131Z,6.10
2019-01-30T06:31:56.755Z,7.00
2019-01-30T06:36:56.299Z,7.77
2019-01-30T06:41:55.833Z,7.80
2019-01-30T06:46:55.383Z,6.83
2019-01-30T06:51:54.928Z,7.87
2019-01-30T06:56:54.466Z,6.47
2019-01-30T07:01:54.006Z,6.73
2019-01-30T07:06:53.562Z,6.87
2019-01-30T07:11:53.136Z,6.43
2019-01-30T07:16:52.669Z,7.53
2019-01-30T07:21:54.242Z,6.93
2019-01-30T07:26:53.875Z,7.00
2019-01-30T07:31:53.430Z,7.00
2019-01-30T07:36:52.970Z,7.10
2019-01-30T07:41:52.579Z,6.30
2019-01-30T07:46:53.255Z,7.30
2019-01-30T07:51:53.272Z,7.60
2019-01-30T07:56:53.409Z,8.23
2019-01-30T08:01:52.990Z,6.83
2019-01-30T08:06:52.630Z,8.23
2019-01-30T08:11:52.182Z,7.60
2019-01-30T08:16:51.742Z,7.93
2019-01-30T08:21:51.293Z,9.63
2019-01-30T08:26:50.946Z,9.30
2019-01-30T08:31:52.010Z,8.87
2019-01-30T08:36:51.631Z,8.60
2019-01-30T08:41:51.186Z,8.23
2019-01-30T08:46:50.742Z,8.90
2019-01-30T08:51:50.479Z,7.37
2019-01-30T08:56:53.033Z,8.00
2019-01-30T09:01:51.358Z,9.00
2019-01-30T09:07:03.663Z,8.27
2019-01-30T09:12:03.282Z,7.50
2019-01-30T09:17:06.570Z,7.47
2019-01-30T09:22:04.224Z,8.27
2019-01-30T09:27:03.831Z,8.87
2019-01-30T09:32:03.383Z,7.10
2019-01-30T09:37:02.930Z,8.40
2019-01-30T09:42:02.466Z,8.40
2019-01-30T09:47:02.085Z,8.00
2019-01-30T09:52:04.560Z,7.80
2019-01-30T09:57:06.005Z,7.00
2019-01-30T10:02:07.139Z,8.37
2019-01-30T10:07:09.476Z,8.20
2019-01-30T10:12:10.266Z,8.53
2019-01-30T10:17:11.160Z,9.40
2019-01-30T10:22:11.788Z,8.47
2019-01-30T10:27:12.590Z,8.40
2019-01-30T10:32:13.832Z,7.23
2019-01-30T10:37:15.490Z,7.60
2019-01-30T10:42:15.102Z,7.20
2019-01-30T10:47:14.741Z,7.87
2019-01-30T10:52:16.303Z,7.80
2019-01-30T10:57:18.071Z,7.20
2019-01-30T11:02:19.493Z,7.13
2019-01-30T11:07:19.634Z,7.27
2019-01-30T11:12:21.256Z,7.40
2019-01-30T11:17:29.488Z,6.63
2019-01-30T11:22:29.923Z,6.40
2019-01-30T11:27:29.473Z,6.60
2019-01-30T11:32:29.015Z,6.37
2019-01-30T11:37:28.657Z,5.93
2019-01-30T11:42:29.067Z,5.00
2019-01-30T11:47:28.643Z,6.10
2019-01-30T11:52:28.275Z,6.30
2019-01-30T11:57:27.824Z,6.53
2019-01-30T12:02:27.383Z,7.57
2019-01-30T12:07:26.931Z,7.43
2019-01-30T12:12:26.475Z,7.33
2019-01-30T12:17:26.022Z,8.03
2019-01-30T12:22:25.614Z,8.53
2019-01-30T12:27:25.158Z,7.90
2019-01-30T12:32:24.698Z,9.23
2019-01-30T12:37:24.255Z,9.53
2019-01-30T12:42:23.808Z,7.20
2019-01-30T12:47:23.343Z,8.30
2019-01-30T12:52:22.883Z,8.17
2019-01-30T12:57:22.427Z,7.43
2019-01-30T13:02:23.199Z,7.50
2019-01-30T13:07:24.310Z,8.57
2019-01-30T13:12:24.844Z,8.60
2019-01-30T13:17:24.382Z,8.50
2019-01-30T13:22:24.018Z,9.80
2019-01-30T13:27:23.706Z,9.37
2019-01-30T13:32:23.250Z,10.50
2019-01-30T13:37:22.867Z,9.77
2019-01-30T13:42:22.422Z,10.50
2019-01-30T13:47:21.984Z,11.30
2019-01-30T13:52:21.539Z,12.37
2019-01-30T13:57:21.104Z,12.47
2019-01-30T14:02:20.692Z,12.27
2019-01-30T14:07:20.304Z,12.30
2019-01-30T14:12:19.967Z,11.50
2019-01-30T14:17:19.558Z,11.80
2019-01-30T14:22:20.914Z,12.57
2019-01-30T14:27:20.522Z,12.40
2019-01-30T14:32:20.111Z,12.00
2019-01-30T14:37:19.925Z,13.67
2019-01-30T14:42:19.559Z,10.50
2019-01-30T14:47:19.181Z,11.40
2019-01-30T14:52:19.006Z,12.27
2019-01-30T14:57:19.769Z,12.17
2019-01-30T15:02:20.428Z,10.60
2019-01-30T15:07:28.859Z,10.40
2019-01-30T15:12:21.699Z,9.10
2019-01-30T15:17:21.492Z,9.87
2019-01-30T15:22:21.168Z,8.10
2019-01-30T15:27:22.596Z,8.17
2019-01-30T15:32:22.259Z,8.13
2019-01-30T15:37:21.840Z,9.10
2019-01-30T15:42:21.462Z,8.30
2019-01-30T15:47:21.034Z,8.03
2019-01-30T15:52:20.586Z,8.90
2019-01-30T15:57:20.150Z,8.50
2019-01-30T16:02:19.826Z,8.90
2019-01-30T16:07:19.477Z,9.07
2019-01-30T16:12:19.026Z,9.20
2019-01-30T16:17:18.554Z,8.80
2019-01-30T16:22:18.098Z,7.57
2019-01-30T16:27:17.652Z,7.10
2019-01-30T16:32:17.183Z,7.87
2019-01-30T16:37:16.722Z,6.80
2019-01-30T16:42:16.327Z,7.37
2019-01-30T16:47:15.876Z,7.57
2019-01-30T16:52:15.450Z,7.57
2019-01-30T16:57:14.998Z,8.07
2019-01-30T17:02:14.587Z,7.07
2019-01-30T17:07:14.122Z,7.93
2019-01-30T17:12:13.666Z,7.57
2019-01-30T17:17:13.226Z,7.33
2019-01-30T17:22:12.901Z,7.97
2019-01-30T17:27:12.434Z,6.57
2019-01-30T17:32:11.977Z,7.77
2019-01-30T17:37:11.522Z,7.33
2019-01-30T17:42:11.071Z,8.20
2019-01-30T17:47:10.682Z,7.53
2019-01-30T17:52:10.310Z,8.63
2019-01-30T17:57:09.855Z,9.83
2019-01-30T18:02:10.794Z,8.60
2019-01-30T18:07:10.347Z,8.00
2019-01-30T18:12:09.902Z,8.80
2019-01-30T18:17:09.456Z,9.27
2019-01-30T18:22:09.094Z,8.90
2019-01-30T18:27:08.662Z,10.67
2019-01-30T18:32:08.210Z,8.97
2019-01-30T18:37:07.822Z,10.10
2019-01-30T18:42:07.358Z,10.60
2019-01-30T18:47:07.876Z,9.57
2019-01-30T18:52:08.785Z,10.80
2019-01-30T18:57:08.429Z,10.17
2019-01-30T19:02:09.471Z,10.77
2019-01-30T19:07:09.981Z,11.37
2019-01-30T19:12:11.227Z,10.07
2019-01-30T19:17:10.782Z,11.37
2019-01-30T19:22:10.488Z,12.20
2019-01-30T19:27:10.235Z,12.90
2019-01-30T19:32:09.775Z,12.97
2019-01-30T19:37:09.314Z,15.00
2019-01-30T19:42:08.863Z,13.17
2019-01-30T19:47:08.506Z,15.60
2019-01-30T19:52:08.077Z,14.90
2019-01-30T19:57:07.639Z,14.90
2019-01-30T20:02:08.338Z,14.77
2019-01-30T20:07:14.452Z,14.30
2019-01-30T20:12:09.326Z,15.60
2019-01-30T20:17:09.084Z,14.53
2019-01-30T20:22:08.803Z,18.07
2019-01-30T20:27:08.361Z,18.20
2019-01-30T20:32:08.091Z,16.77
2019-01-30T20:37:07.816Z,18.23
2019-01-30T20:42:07.823Z,16.90
2019-01-30T20:47:07.367Z,17.00
2019-01-30T20:52:07.758Z,19.80
2019-01-30T20:57:09.294Z,19.40
2019-01-30T21:02:08.937Z,17.13
2019-01-30T21:07:08.994Z,18.90
2019-01-30T21:12:09.659Z,17.20
2019-01-30T21:17:09.338Z,18.30
2019-01-30T21:22:09.171Z,17.83
2019-01-30T21:27:08.730Z,19.33
2019-01-30T21:32:08.283Z,20.13
2019-01-30T21:37:07.834Z,19.20
2019-01-30T21:42:07.379Z,18.23
2019-01-30T21:47:06.923Z,19.73
2019-01-30T21:52:06.555Z,17.93
2019-01-30T21:57:06.107Z,20.00
2019-01-30T22:02:08.343Z,20.00
2019-01-30T22:07:07.008Z,19.47
2019-01-30T22:12:06.558Z,20.47
2019-01-30T22:17:06.250Z,19.60
2019-01-30T22:22:05.817Z,21.10
2019-01-30T22:27:05.430Z,21.00
2019-01-30T22:32:05.270Z,20.20
2019-01-30T22:37:04.899Z,19.00
2019-01-30T22:42:04.811Z,22.40
2019-01-30T22:47:04.454Z,19.50
2019-01-30T22:52:04.061Z,20.93
2019-01-30T22:57:03.618Z,19.40
2019-01-30T23:02:10.836Z,20.20
2019-01-30T23:07:24.234Z,20.37
2019-01-30T23:12:39.281Z,22.87
2019-01-30T23:18:22.687Z,21.00
2019-01-30T23:23:51.607Z,19.90
2019-01-30T23:29:17.075Z,20.80
2019-01-30T23:34:43.651Z,21.37
2019-01-30T23:40:19.138Z,22.57
2019-01-30T23:45:50.321Z,21.87
2019-01-30T23:51:37.971Z,22.40
2019-01-30T23:57:22.418Z,20.40
